createdAt,value
2018-11-10T00:02:01.447Z,19.30
2018-11-10T00:07:04.913Z,19.50
2018-11-10T00:12:08.246Z,19.60
2018-11-10T00:17:11.801Z,19.70
2018-11-10T00:22:15.534Z,19.70
2018-11-10T00:27:18.875Z,19.80
2018-11-10T00:32:22.686Z,19.90
2018-11-10T00:37:26.682Z,19.90
2018-11-10T00:42:29.929Z,19.90
2018-11-10T00:47:33.390Z,20.00
2018-11-10T00:52:37.132Z,20.10
2018-11-10T00:57:41.512Z,20.10
2018-11-10T01:02:45.109Z,20.20
2018-11-10T01:07:48.341Z,20.20
2018-11-10T01:12:51.621Z,20.30
2018-11-10T01:17:54.847Z,20.30
2018-11-10T01:22:58.133Z,20.30
2018-11-10T01:28:01.474Z,20.30
2018-11-10T01:33:06.165Z,20.30
2018-11-10T01:38:09.396Z,20.20
2018-11-10T01:43:12.651Z,20.20
2018-11-10T01:48:15.873Z,20.20
2018-11-10T01:53:19.122Z,20.20
2018-11-10T01:58:22.398Z,20.10
2018-11-10T02:03:25.622Z,20.10
2018-11-10T02:08:28.826Z,20.00
2018-11-10T02:13:32.121Z,20.00
2018-11-10T02:18:35.337Z,19.90
2018-11-10T02:23:38.591Z,19.90
2018-11-10T02:28:41.807Z,19.90
2018-11-10T02:33:45.141Z,19.70
2018-11-10T02:38:48.476Z,19.70
2018-11-10T02:43:51.633Z,19.70
2018-11-10T02:48:54.813Z,19.60
2018-11-10T02:53:58.056Z,19.50
2018-11-10T02:59:01.308Z,19.50
2018-11-10T03:04:04.538Z,19.40
2018-11-10T03:09:08.446Z,19.40
2018-11-10T03:14:11.647Z,19.30
2018-11-10T03:19:14.856Z,19.30
2018-11-10T03:24:18.090Z,19.20
2018-11-10T03:29:21.549Z,19.20
2018-11-10T03:34:24.760Z,19.10
2018-11-10T03:39:27.994Z,19.10
2018-11-10T03:44:31.270Z,19.00
2018-11-10T03:49:34.463Z,18.90
2018-11-10T03:54:37.688Z,18.90
2018-11-10T03:59:40.905Z,18.90
2018-11-10T04:04:44.119Z,18.80
2018-11-10T04:09:47.290Z,18.80
2018-11-10T04:14:50.633Z,18.70
2018-11-10T04:19:54.153Z,18.70
2018-11-10T04:24:57.478Z,18.70
2018-11-10T04:30:00.909Z,18.60
2018-11-10T04:35:04.262Z,18.50
2018-11-10T04:40:08.133Z,18.50
2018-11-10T04:45:12.334Z,18.40
2018-11-10T04:50:15.613Z,18.40
2018-11-10T04:55:19.017Z,18.30
2018-11-10T05:00:22.248Z,18.30
2018-11-10T05:05:25.513Z,18.30
2018-11-10T05:10:28.792Z,18.30
2018-11-10T05:15:32.413Z,18.20
2018-11-10T05:20:35.844Z,18.20
2018-11-10T05:25:39.065Z,18.20
2018-11-10T05:30:42.336Z,18.10
2018-11-10T05:35:45.585Z,18.10
2018-11-10T05:40:48.836Z,18.00
2018-11-10T05:45:52.039Z,18.00
2018-11-10T05:50:55.241Z,17.90
2018-11-10T05:55:58.657Z,17.90
2018-11-10T06:01:02.127Z,17.90
2018-11-10T06:06:06.179Z,17.90
2018-11-10T06:11:09.379Z,17.80
2018-11-10T06:16:12.638Z,17.90
2018-11-10T06:21:15.908Z,17.90
2018-11-10T06:26:19.318Z,18.20
2018-11-10T06:31:22.486Z,18.20
2018-11-10T06:36:25.867Z,18.40
2018-11-10T06:41:29.239Z,18.60
2018-11-10T06:46:32.382Z,18.70
2018-11-10T06:51:36.331Z,18.80
2018-11-10T06:56:39.553Z,18.90
2018-11-10T07:01:42.875Z,18.90
2018-11-10T07:06:46.073Z,18.90
2018-11-10T07:11:49.357Z,19.00
2018-11-10T07:16:52.571Z,19.00
2018-11-10T07:21:55.981Z,19.00
2018-11-10T07:26:59.333Z,19.00
2018-11-10T07:32:02.765Z,18.90
2018-11-10T07:37:06.370Z,18.90
2018-11-10T07:42:09.925Z,18.90
2018-11-10T07:47:13.202Z,19.00
2018-11-10T07:52:16.441Z,19.00
2018-11-10T07:57:19.944Z,19.10
2018-11-10T08:02:23.178Z,19.10
2018-11-10T08:07:26.444Z,19.20
2018-11-10T08:12:29.681Z,19.20
2018-11-10T08:17:32.938Z,19.20
2018-11-10T08:22:36.202Z,19.20
2018-11-10T08:27:39.630Z,19.20
2018-11-10T08:32:43.256Z,19.20
2018-11-10T08:37:46.569Z,19.30
2018-11-10T08:42:50.417Z,19.30
2018-11-10T08:47:53.802Z,19.30
2018-11-10T08:52:57.099Z,19.40
2018-11-10T08:58:00.325Z,19.40
2018-11-10T09:03:03.566Z,19.40
2018-11-10T09:08:06.911Z,19.40
2018-11-10T09:13:10.332Z,19.50
2018-11-10T09:18:13.546Z,19.50
2018-11-10T09:23:16.979Z,19.60
2018-11-10T09:28:20.295Z,19.60
2018-11-10T09:33:23.633Z,19.70
2018-11-10T09:38:26.892Z,19.70
2018-11-10T09:43:30.895Z,19.70
2018-11-10T09:48:34.433Z,19.70
2018-11-10T09:53:37.665Z,19.70
2018-11-10T09:58:40.944Z,19.70
2018-11-10T10:03:44.282Z,19.80
2018-11-10T10:08:47.554Z,19.80
2018-11-10T10:13:50.816Z,19.80
2018-11-10T10:18:54.029Z,19.80
2018-11-10T10:23:57.459Z,19.80
2018-11-10T10:29:00.787Z,19.90
2018-11-10T10:34:03.961Z,19.80
2018-11-10T10:39:09.498Z,19.80
2018-11-10T10:44:12.745Z,19.80
2018-11-10T10:49:16.117Z,19.90
2018-11-10T10:54:19.766Z,19.80
2018-11-10T10:59:23.286Z,19.90
2018-11-10T11:04:31.889Z,19.90
2018-11-10T11:09:35.692Z,19.90
2018-11-10T11:14:39.260Z,19.90
2018-11-10T11:19:42.517Z,19.90
2018-11-10T11:24:45.984Z,19.80
2018-11-10T11:29:49.434Z,19.80
2018-11-10T11:34:53.589Z,19.80
2018-11-10T11:39:56.863Z,19.80
2018-11-10T11:45:00.361Z,19.80
2018-11-10T11:50:07.561Z,19.80
2018-11-10T11:55:11.554Z,19.80
2018-11-10T12:00:17.055Z,19.70
2018-11-10T12:05:20.675Z,19.70
2018-11-10T12:10:24.463Z,19.70
2018-11-10T12:15:27.808Z,19.70
2018-11-10T12:20:30.994Z,19.60
2018-11-10T12:25:34.285Z,19.60
2018-11-10T12:30:37.536Z,19.60
2018-11-10T12:35:41.156Z,19.50
2018-11-10T12:40:44.452Z,19.50
2018-11-10T12:45:47.714Z,19.50
2018-11-10T12:50:51.152Z,19.40
2018-11-10T12:55:55.315Z,19.40
2018-11-10T13:00:58.639Z,19.40
2018-11-10T13:06:02.266Z,19.30
2018-11-10T13:11:05.638Z,19.30
2018-11-10T13:16:08.904Z,19.30
2018-11-10T13:21:12.256Z,19.30
2018-11-10T13:26:16.124Z,19.20
2018-11-10T13:31:19.544Z,19.20
2018-11-10T13:36:22.744Z,19.20
2018-11-10T13:41:25.958Z,19.20
2018-11-10T13:46:29.203Z,19.20
2018-11-10T13:51:32.580Z,19.20
2018-11-10T13:56:35.687Z,19.10
2018-11-10T14:01:39.014Z,19.10
2018-11-10T14:06:42.305Z,19.10
2018-11-10T14:11:45.640Z,19.10
2018-11-10T14:16:48.906Z,19.10
2018-11-10T14:21:52.336Z,19.10
2018-11-10T14:26:56.025Z,19.10
2018-11-10T14:31:59.249Z,19.10
2018-11-10T14:37:02.593Z,19.00
2018-11-10T14:42:06.069Z,19.00
2018-11-10T14:47:09.309Z,19.00
2018-11-10T14:52:12.620Z,19.00
2018-11-10T14:57:16.106Z,19.00
2018-11-10T15:02:19.365Z,19.00
2018-11-10T15:07:23.104Z,18.90
2018-11-10T15:12:26.848Z,18.90
2018-11-10T15:17:30.159Z,18.90
2018-11-10T15:22:33.375Z,19.00
2018-11-10T15:27:37.160Z,18.90
2018-11-10T15:32:41.457Z,18.90
2018-11-10T15:37:46.348Z,18.90
2018-11-10T15:42:49.785Z,18.90
2018-11-10T15:47:53.094Z,18.80
2018-11-10T15:52:56.676Z,18.80
2018-11-10T15:58:00.266Z,18.80
2018-11-10T16:03:03.917Z,18.80
2018-11-10T16:08:07.439Z,18.80
2018-11-10T16:13:10.809Z,18.80
2018-11-10T16:18:14.753Z,18.80
2018-11-10T16:23:18.295Z,18.70
2018-11-10T16:28:21.641Z,18.70
2018-11-10T16:33:25.236Z,18.60
2018-11-10T16:38:28.568Z,18.70
2018-11-10T16:43:32.752Z,18.70
2018-11-10T16:48:36.285Z,18.60
2018-11-10T16:53:39.837Z,18.60
2018-11-10T16:58:43.282Z,18.60
2018-11-10T17:03:47.246Z,18.50
2018-11-10T17:08:50.624Z,18.50
2018-11-10T17:13:53.933Z,18.50
2018-11-10T17:18:57.410Z,18.50
2018-11-10T17:24:00.643Z,18.50
2018-11-10T17:29:03.983Z,18.50
2018-11-10T17:34:07.427Z,18.40
2018-11-10T17:39:11.044Z,18.40
2018-11-10T17:44:15.534Z,18.40
2018-11-10T17:49:19.100Z,18.40
2018-11-10T17:54:22.429Z,18.40
2018-11-10T17:59:25.971Z,18.40
2018-11-10T18:04:29.291Z,18.40
2018-11-10T18:09:32.578Z,18.30
2018-11-10T18:14:36.359Z,18.30
2018-11-10T18:19:39.697Z,18.30
2018-11-10T18:24:43.001Z,18.30
2018-11-10T18:29:46.363Z,18.30
2018-11-10T18:34:49.701Z,18.20
2018-11-10T18:39:53.024Z,18.20
2018-11-10T18:44:56.265Z,18.20
2018-11-10T18:49:59.568Z,18.20
2018-11-10T18:55:03.031Z,18.20
2018-11-10T19:00:08.730Z,18.10
2018-11-10T19:05:13.420Z,18.10
2018-11-10T19:10:17.801Z,18.10
2018-11-10T19:15:21.743Z,18.10
2018-11-10T19:20:25.011Z,18.10
2018-11-10T19:25:28.676Z,18.10
2018-11-10T19:30:32.109Z,18.10
2018-11-10T19:35:35.470Z,18.10
2018-11-10T19:40:38.841Z,18.10
2018-11-10T19:45:42.154Z,18.10
2018-11-10T19:50:45.568Z,18.10
2018-11-10T19:55:49.159Z,18.10
2018-11-10T20:00:52.684Z,18.10
2018-11-10T20:05:56.168Z,18.00
2018-11-10T20:10:59.635Z,18.00
2018-11-10T20:16:02.942Z,18.00
2018-11-10T20:21:06.223Z,18.00
2018-11-10T20:26:09.565Z,18.00
2018-11-10T20:31:12.873Z,17.90
2018-11-10T20:36:16.500Z,17.90
2018-11-10T20:41:19.775Z,17.90
2018-11-10T20:46:23.498Z,17.90
2018-11-10T20:51:26.760Z,17.90
2018-11-10T20:56:30.198Z,17.90
2018-11-10T21:01:33.796Z,17.80
2018-11-10T21:06:37.559Z,17.80
2018-11-10T21:11:41.223Z,17.80
2018-11-10T21:16:44.731Z,17.80
2018-11-10T21:21:48.117Z,17.80
2018-11-10T21:26:51.604Z,17.70
2018-11-10T21:31:54.898Z,17.70
2018-11-10T21:36:58.390Z,17.70
2018-11-10T21:42:01.702Z,17.70
2018-11-10T21:47:06.040Z,17.70
2018-11-10T21:52:09.603Z,17.70
2018-11-10T21:57:13.153Z,17.70
2018-11-10T22:02:16.503Z,17.70
2018-11-10T22:07:19.839Z,17.60
2018-11-10T22:12:23.171Z,17.60
2018-11-10T22:17:26.693Z,17.60
2018-11-10T22:22:30.068Z,17.60
2018-11-10T22:27:33.408Z,17.70
2018-11-10T22:32:36.728Z,17.80
2018-11-10T22:37:40.988Z,18.00
2018-11-10T22:42:44.542Z,18.10
2018-11-10T22:47:48.211Z,18.30
2018-11-10T22:52:51.942Z,18.40
2018-11-10T22:57:55.255Z,18.50
2018-11-10T23:03:00.094Z,18.60
2018-11-10T23:08:03.414Z,18.80
2018-11-10T23:13:06.764Z,18.90
2018-11-10T23:18:10.290Z,19.00
2018-11-10T23:23:13.849Z,19.10
2018-11-10T23:28:17.378Z,19.10
2018-11-10T23:33:20.661Z,19.10
2018-11-10T23:38:24.133Z,19.20
2018-11-10T23:43:27.723Z,19.20
2018-11-10T23:48:30.995Z,19.20
2018-11-10T23:53:34.264Z,19.20
2018-11-10T23:58:37.593Z,19.10
